Time;durP1;ratioP1;P1;durP2;ratioP2;P2;SDS_P1;SDS_P2;PMS_P1;PMS_P2;Temp;Humidity;BMP_temperature;BMP_pressure;BME280_temperature;BME280_humidity;BME280_pressure;Samples;Min_cycle;Max_cycle;Signal;HPM_P1;HPM_P2
2022/09/24 00:00:51;;;;;;;;;;;13.60;99.90;;;;;;5067820;28;20014;-67
2022/09/24 00:03:20;;;;;;;;;;;13.50;99.90;;;;;;5067077;28;20011;-66
2022/09/24 00:05:46;;;;;;;;;;;13.60;99.90;;;;;;5043611;28;19916;-67
2022/09/24 00:08:12;;;;;;;;;;;13.60;99.90;;;;;;5068332;28;19925;-66
2022/09/24 00:10:39;;;;;;;;;;;13.60;99.90;;;;;;5072432;28;19939;-66
2022/09/24 00:13:08;;;;;;;;;;;13.60;99.90;;;;;;5069425;28;20268;-67
2022/09/24 00:15:34;;;;;;;;;;;13.60;99.90;;;;;;5084703;28;19916;-67
2022/09/24 00:18:00;;;;;;;;;;;13.60;99.90;;;;;;5102222;28;20294;-67
2022/09/24 00:20:28;;;;;;;;;;;13.60;99.90;;;;;;5072558;28;19921;-67
2022/09/24 00:22:54;;;;;;;;;;;13.50;99.90;;;;;;5067713;28;19999;-66
2022/09/24 00:28:03;;;;;;;;;;;13.50;99.90;;;;;;5063074;28;19929;-66
2022/09/24 00:30:29;;;;;;;;;;;13.50;99.90;;;;;;5052126;28;20050;-67
2022/09/24 00:32:54;;;;;;;;;;;13.50;99.90;;;;;;5070023;28;19973;-67
2022/09/24 00:35:20;;;;;;;;;;;13.50;99.90;;;;;;5065237;28;19965;-67
2022/09/24 00:37:45;;;;;;;;;;;13.50;99.90;;;;;;5068941;28;20612;-66
2022/09/24 00:40:14;;;;;;;;;;;13.50;99.90;;;;;;5067309;28;19916;-67
2022/09/24 00:42:39;;;;;;;;;;;13.50;99.90;;;;;;5050197;28;19923;-67
2022/09/24 00:45:08;;;;;;;;;;;13.50;99.90;;;;;;5066717;28;19927;-66
2022/09/24 00:47:37;;;;;;;;;;;13.50;99.90;;;;;;5067979;28;20408;-66
2022/09/24 00:50:12;;;;;;;;;;;13.50;99.90;;;;;;5068474;28;19923;-66
2022/09/24 00:52:41;;;;;;;;;;;13.50;99.90;;;;;;5069826;28;20267;-66
2022/09/24 00:55:07;;;;;;;;;;;13.50;99.90;;;;;;5064378;28;19963;-66
2022/09/24 00:57:33;;;;;;;;;;;13.50;99.90;;;;;;5069575;28;19928;-66
2022/09/24 00:59:59;;;;;;;;;;;13.40;99.90;;;;;;5061822;28;19928;-66
2022/09/24 01:02:24;;;;;;;;;;;13.50;99.90;;;;;;5069688;28;19916;-66
2022/09/24 01:04:50;;;;;;;;;;;13.50;99.90;;;;;;5066602;28;20043;-66
2022/09/24 01:07:16;;;;;;;;;;;13.50;99.90;;;;;;5069486;28;19924;-66
2022/09/24 01:09:41;;;;;;;;;;;13.50;99.90;;;;;;5069575;28;20025;-67
2022/09/24 01:12:18;;;;;;;;;;;13.50;99.90;;;;;;5052329;28;19920;-66
2022/09/24 01:14:50;;;;;;;;;;;13.50;99.90;;;;;;5068681;28;20374;-66
2022/09/24 01:17:15;;;;;;;;;;;13.50;99.90;;;;;;5068622;28;20259;-66
2022/09/24 01:19:41;;;;;;;;;;;13.50;99.90;;;;;;5070260;28;19916;-67
2022/09/24 01:22:12;;;;;;;;;;;13.50;99.90;;;;;;5067981;28;19920;-66
2022/09/24 01:24:47;;;;;;;;;;;13.50;99.90;;;;;;5049325;28;19951;-67
2022/09/24 01:27:16;;;;;;;;;;;13.50;99.90;;;;;;5067881;28;20397;-67
2022/09/24 01:29:45;;;;;;;;;;;13.50;99.90;;;;;;5069047;28;20011;-66
2022/09/24 01:32:33;;;;;;;;;;;13.50;99.90;;;;;;5062406;28;20363;-66
2022/09/24 01:35:04;;;;;;;;;;;13.50;99.90;;;;;;5045769;28;19920;-67
2022/09/24 01:37:32;;;;;;;;;;;13.40;99.90;;;;;;5070690;28;19951;-66
2022/09/24 01:39:58;;;;;;;;;;;13.50;99.90;;;;;;5066232;28;20319;-66
2022/09/24 01:42:26;;;;;;;;;;;13.40;99.90;;;;;;5070926;28;19916;-66
2022/09/24 01:44:51;;;;;;;;;;;13.40;99.90;;;;;;5070091;28;20387;-66
2022/09/24 01:47:25;;;;;;;;;;;13.40;99.90;;;;;;5072596;28;19924;-66
2022/09/24 01:49:52;;;;;;;;;;;13.40;99.90;;;;;;5055792;28;19916;-67
2022/09/24 01:52:20;;;;;;;;;;;13.40;99.90;;;;;;5074003;28;19916;-66
2022/09/24 01:54:50;;;;;;;;;;;13.40;99.90;;;;;;5071729;28;20255;-66
2022/09/24 01:57:22;;;;;;;;;;;13.30;99.90;;;;;;5052313;28;20025;-66
2022/09/24 02:00:00;;;;;;;;;;;13.30;99.90;;;;;;5070779;28;19920;-67
2022/09/24 02:02:34;;;;;;;;;;;13.30;99.90;;;;;;5071953;28;19942;-66
2022/09/24 02:05:03;;;;;;;;;;;13.30;99.90;;;;;;5070738;28;20357;-66
2022/09/24 02:07:32;;;;;;;;;;;13.30;99.90;;;;;;5066098;28;19955;-66
2022/09/24 02:09:58;;;;;;;;;;;13.40;99.90;;;;;;5072071;28;19924;-67
2022/09/24 02:12:36;;;;;;;;;;;13.40;99.90;;;;;;5072574;28;19995;-66
2022/09/24 02:15:13;;;;;;;;;;;13.30;99.90;;;;;;5070957;28;19916;-67
2022/09/24 02:17:40;;;;;;;;;;;13.30;99.90;;;;;;5105717;28;19917;-66
2022/09/24 02:20:10;;;;;;;;;;;13.30;99.90;;;;;;5063617;28;20365;-67
2022/09/24 02:22:36;;;;;;;;;;;13.30;99.90;;;;;;5070174;28;19917;-66
2022/09/24 02:25:04;;;;;;;;;;;13.40;99.90;;;;;;5071997;28;19917;-66
2022/09/24 02:27:30;;;;;;;;;;;13.30;99.90;;;;;;5066910;28;20007;-67
2022/09/24 02:29:56;;;;;;;;;;;13.30;99.90;;;;;;5065383;28;20015;-66
2022/09/24 02:32:24;;;;;;;;;;;13.30;99.90;;;;;;5067270;28;20003;-66
2022/09/24 02:34:51;;;;;;;;;;;13.20;99.90;;;;;;5070521;28;19968;-66
2022/09/24 02:37:16;;;;;;;;;;;13.20;99.90;;;;;;5068862;28;19920;-66
2022/09/24 02:39:42;;;;;;;;;;;13.30;99.90;;;;;;5071222;28;19916;-66
2022/09/24 02:42:09;;;;;;;;;;;13.30;99.90;;;;;;5067338;28;19958;-66
2022/09/24 02:44:35;;;;;;;;;;;13.20;99.90;;;;;;5072183;28;19920;-66
2022/09/24 02:47:00;;;;;;;;;;;13.10;99.90;;;;;;5053616;28;19920;-67
2022/09/24 02:49:26;;;;;;;;;;;13.20;99.90;;;;;;5072162;28;20268;-66
2022/09/24 02:51:51;;;;;;;;;;;13.10;99.90;;;;;;5069749;28;19916;-66
2022/09/24 02:54:17;;;;;;;;;;;13.10;99.90;;;;;;5070492;28;19924;-67
2022/09/24 02:56:42;;;;;;;;;;;13.10;99.90;;;;;;5065796;28;20005;-66
2022/09/24 02:59:08;;;;;;;;;;;13.10;99.90;;;;;;5072181;28;19949;-66
2022/09/24 03:01:34;;;;;;;;;;;13.00;99.90;;;;;;5068551;28;19959;-66
2022/09/24 03:04:00;;;;;;;;;;;13.00;99.90;;;;;;5071952;28;19923;-66
2022/09/24 03:06:25;;;;;;;;;;;13.00;99.90;;;;;;5065386;28;19920;-66
2022/09/24 03:08:52;;;;;;;;;;;13.00;99.90;;;;;;5072344;28;20279;-66
2022/09/24 03:11:18;;;;;;;;;;;13.00;99.90;;;;;;5054644;28;19917;-66
2022/09/24 03:13:44;;;;;;;;;;;12.90;99.90;;;;;;5055601;28;19916;-67
2022/09/24 03:16:09;;;;;;;;;;;12.90;99.90;;;;;;5069949;28;20006;-66
2022/09/24 03:18:35;;;;;;;;;;;12.90;99.90;;;;;;5070280;28;20351;-67
2022/09/24 03:21:02;;;;;;;;;;;12.90;99.90;;;;;;5071434;28;19939;-66
2022/09/24 03:23:28;;;;;;;;;;;12.80;99.90;;;;;;5070654;28;19927;-66
2022/09/24 03:25:54;;;;;;;;;;;12.80;99.90;;;;;;5071191;28;19920;-67
2022/09/24 03:28:20;;;;;;;;;;;12.90;99.90;;;;;;5070646;28;19920;-67
2022/09/24 03:31:01;;;;;;;;;;;12.90;99.90;;;;;;5051365;28;20366;-66
2022/09/24 03:33:31;;;;;;;;;;;12.90;99.90;;;;;;5070218;28;20395;-66
2022/09/24 03:36:01;;;;;;;;;;;12.90;99.90;;;;;;5070690;28;19920;-67
2022/09/24 03:38:28;;;;;;;;;;;12.90;99.90;;;;;;5053565;28;20401;-67
2022/09/24 03:40:54;;;;;;;;;;;12.90;99.90;;;;;;5070917;28;19970;-66
2022/09/24 03:43:19;;;;;;;;;;;12.80;99.90;;;;;;5070752;28;20007;-66
2022/09/24 03:45:45;;;;;;;;;;;12.80;99.90;;;;;;5070560;28;19969;-66
2022/09/24 03:48:10;;;;;;;;;;;12.80;99.90;;;;;;5071295;28;19931;-67
2022/09/24 03:50:36;;;;;;;;;;;12.80;99.90;;;;;;5071114;28;19920;-66
2022/09/24 03:53:02;;;;;;;;;;;12.90;99.90;;;;;;5069913;28;19920;-67
2022/09/24 03:55:28;;;;;;;;;;;12.90;99.90;;;;;;5070171;28;19921;-66
2022/09/24 03:57:53;;;;;;;;;;;12.90;99.90;;;;;;5071055;28;20287;-66
2022/09/24 04:00:19;;;;;;;;;;;12.80;99.90;;;;;;5069939;28;19965;-66
2022/09/24 04:02:45;;;;;;;;;;;12.90;99.90;;;;;;5054179;28;19916;-66
2022/09/24 04:05:10;;;;;;;;;;;12.90;99.90;;;;;;5067605;28;20350;-66
2022/09/24 04:07:36;;;;;;;;;;;12.90;99.90;;;;;;5067909;28;19920;-66
2022/09/24 04:10:01;;;;;;;;;;;12.90;99.90;;;;;;5062794;28;19917;-66
2022/09/24 04:12:28;;;;;;;;;;;12.90;99.90;;;;;;5065352;28;19916;-66
2022/09/24 04:14:54;;;;;;;;;;;12.90;99.90;;;;;;5070396;28;19916;-67
2022/09/24 04:17:19;;;;;;;;;;;12.90;99.90;;;;;;5051660;28;19942;-66
2022/09/24 04:19:45;;;;;;;;;;;13.00;99.90;;;;;;5067203;28;20009;-66
2022/09/24 04:22:10;;;;;;;;;;;13.00;99.90;;;;;;5069091;28;20011;-66
2022/09/24 04:24:36;;;;;;;;;;;13.00;99.90;;;;;;5054767;28;19920;-66
2022/09/24 04:27:01;;;;;;;;;;;12.90;99.90;;;;;;5063426;28;20353;-67
2022/09/24 04:29:27;;;;;;;;;;;13.00;99.90;;;;;;5068833;28;19970;-66
2022/09/24 04:31:52;;;;;;;;;;;13.00;99.90;;;;;;5069448;28;19969;-67
2022/09/24 04:34:19;;;;;;;;;;;13.00;99.90;;;;;;5068015;28;19974;-66
2022/09/24 04:36:45;;;;;;;;;;;13.00;99.90;;;;;;5069772;28;19950;-67
2022/09/24 04:39:10;;;;;;;;;;;13.00;99.90;;;;;;5068495;28;19916;-66
2022/09/24 04:41:36;;;;;;;;;;;13.00;99.90;;;;;;5068016;28;19939;-66
2022/09/24 04:44:04;;;;;;;;;;;13.00;99.90;;;;;;5068839;28;20395;-66
2022/09/24 04:46:33;;;;;;;;;;;13.00;99.90;;;;;;5070057;28;19927;-66
2022/09/24 04:48:58;;;;;;;;;;;13.00;99.90;;;;;;5069757;28;19927;-67
2022/09/24 04:51:24;;;;;;;;;;;13.00;99.90;;;;;;5066279;28;20290;-66
2022/09/24 04:53:49;;;;;;;;;;;13.00;99.90;;;;;;5053049;28;20015;-66
2022/09/24 04:56:15;;;;;;;;;;;13.00;99.90;;;;;;5072673;28;20014;-67
2022/09/24 04:58:41;;;;;;;;;;;13.10;99.90;;;;;;5066214;28;19917;-66
2022/09/24 05:01:06;;;;;;;;;;;13.10;99.90;;;;;;5068591;28;19925;-66
2022/09/24 05:03:32;;;;;;;;;;;13.10;99.90;;;;;;5066244;28;20398;-67
2022/09/24 05:05:57;;;;;;;;;;;13.00;99.90;;;;;;5067968;28;19920;-66
2022/09/24 05:08:23;;;;;;;;;;;13.10;99.90;;;;;;5050753;28;19921;-68
2022/09/24 05:10:48;;;;;;;;;;;13.10;99.90;;;;;;5068917;28;20359;-67
2022/09/24 05:13:14;;;;;;;;;;;13.10;99.90;;;;;;5068233;28;19916;-67
2022/09/24 05:15:39;;;;;;;;;;;13.10;99.90;;;;;;5068388;28;19916;-67
2022/09/24 05:18:05;;;;;;;;;;;13.10;99.90;;;;;;5056031;28;19920;-67
2022/09/24 05:20:31;;;;;;;;;;;13.10;99.90;;;;;;5073515;28;19923;-66
2022/09/24 05:22:56;;;;;;;;;;;13.10;99.90;;;;;;5074923;28;20278;-66
2022/09/24 05:25:22;;;;;;;;;;;13.10;99.90;;;;;;5076280;28;19916;-67
2022/09/24 05:27:48;;;;;;;;;;;13.10;99.90;;;;;;5073796;28;20387;-69
2022/09/24 05:30:14;;;;;;;;;;;13.20;99.90;;;;;;5057192;28;19920;-69
2022/09/24 05:32:40;;;;;;;;;;;13.20;99.90;;;;;;5074051;28;19923;-67
2022/09/24 05:35:08;;;;;;;;;;;13.20;99.90;;;;;;5076058;28;19920;-67
2022/09/24 05:37:34;;;;;;;;;;;13.20;99.90;;;;;;5076965;28;19916;-68
2022/09/24 05:40:46;;;;;;;;;;;13.20;99.90;;;;;;5073638;28;19968;-68
2022/09/24 05:42:46;;;;;;;;;;;13.20;99.90;;;;;;5071925;28;19920;-67
2022/09/24 05:45:14;;;;;;;;;;;13.20;99.90;;;;;;5073066;28;20397;-67
2022/09/24 05:47:40;;;;;;;;;;;13.20;99.90;;;;;;5072543;28;19978;-66
2022/09/24 05:50:06;;;;;;;;;;;13.20;99.90;;;;;;5072573;28;19960;-69
2022/09/24 05:52:31;;;;;;;;;;;13.20;99.90;;;;;;5072674;28;20033;-66
2022/09/24 05:54:57;;;;;;;;;;;13.30;99.90;;;;;;5073085;28;20367;-68
2022/09/24 05:57:22;;;;;;;;;;;13.20;99.90;;;;;;5056845;28;19920;-66
2022/09/24 05:59:48;;;;;;;;;;;13.30;99.90;;;;;;5074285;28;19916;-66
2022/09/24 06:02:13;;;;;;;;;;;13.20;99.90;;;;;;5072599;28;19925;-68
2022/09/24 06:04:39;;;;;;;;;;;13.30;99.90;;;;;;5071013;28;20023;-66
2022/09/24 06:07:04;;;;;;;;;;;13.30;99.90;;;;;;5055530;28;19943;-65
2022/09/24 06:09:30;;;;;;;;;;;13.30;99.90;;;;;;5071362;28;19920;-65
2022/09/24 06:11:55;;;;;;;;;;;13.30;99.90;;;;;;5072780;28;19923;-65
2022/09/24 06:14:21;;;;;;;;;;;13.30;99.90;;;;;;5070229;28;19916;-66
2022/09/24 06:16:47;;;;;;;;;;;13.30;99.90;;;;;;5075127;28;20390;-67
2022/09/24 06:19:12;;;;;;;;;;;13.30;99.90;;;;;;5071156;28;19923;-64
2022/09/24 06:21:38;;;;;;;;;;;13.30;99.90;;;;;;5051476;28;20283;-65
2022/09/24 06:24:03;;;;;;;;;;;13.30;99.90;;;;;;5069405;28;19939;-65
2022/09/24 06:26:29;;;;;;;;;;;13.30;99.90;;;;;;5071944;28;19920;-65
2022/09/24 06:28:55;;;;;;;;;;;13.30;99.90;;;;;;5071028;28;19920;-65
2022/09/24 06:31:20;;;;;;;;;;;13.30;99.90;;;;;;5070483;28;20263;-65
2022/09/24 06:33:46;;;;;;;;;;;13.30;99.90;;;;;;5072493;28;20404;-66
2022/09/24 06:36:12;;;;;;;;;;;13.30;99.90;;;;;;5071368;28;19923;-66
2022/09/24 06:38:40;;;;;;;;;;;13.30;99.90;;;;;;5055468;28;20007;-65
2022/09/24 06:41:06;;;;;;;;;;;13.30;99.90;;;;;;5072122;28;19930;-66
2022/09/24 06:43:32;;;;;;;;;;;13.30;99.90;;;;;;5072028;28;19920;-65
2022/09/24 06:45:58;;;;;;;;;;;13.30;99.90;;;;;;5073045;28;19924;-65
2022/09/24 06:48:25;;;;;;;;;;;13.30;99.90;;;;;;5073075;28;20003;-66
2022/09/24 06:50:51;;;;;;;;;;;13.30;99.90;;;;;;5053052;28;19917;-67
2022/09/24 06:53:17;;;;;;;;;;;13.30;99.90;;;;;;5071552;28;19927;-65
2022/09/24 06:55:43;;;;;;;;;;;13.20;99.90;;;;;;5069986;28;19923;-67
2022/09/24 06:58:10;;;;;;;;;;;13.20;99.90;;;;;;5070382;28;19987;-67
2022/09/24 07:00:37;;;;;;;;;;;13.20;99.90;;;;;;5073167;28;19943;-67
2022/09/24 07:03:03;;;;;;;;;;;13.20;99.90;;;;;;5072676;28;19917;-66
2022/09/24 07:05:29;;;;;;;;;;;13.10;99.90;;;;;;5070866;28;19924;-66
2022/09/24 07:07:54;;;;;;;;;;;13.20;99.90;;;;;;5069888;28;19973;-66
2022/09/24 07:10:20;;;;;;;;;;;13.20;99.90;;;;;;5071640;28;20295;-66
2022/09/24 07:12:45;;;;;;;;;;;13.20;99.90;;;;;;5055543;28;19920;-66
2022/09/24 07:15:11;;;;;;;;;;;13.20;99.90;;;;;;5072989;28;19926;-66
2022/09/24 07:17:37;;;;;;;;;;;13.20;99.90;;;;;;5074310;28;19916;-66
2022/09/24 07:20:03;;;;;;;;;;;13.30;99.90;;;;;;5071973;28;20293;-65
2022/09/24 07:22:28;;;;;;;;;;;13.30;99.90;;;;;;5071621;28;19926;-66
2022/09/24 07:24:54;;;;;;;;;;;13.30;99.90;;;;;;5071582;28;19916;-66
2022/09/24 07:27:20;;;;;;;;;;;13.40;99.90;;;;;;5072506;28;20390;-66
2022/09/24 07:29:46;;;;;;;;;;;13.40;99.90;;;;;;5070960;28;19916;-66
2022/09/24 07:32:11;;;;;;;;;;;13.40;99.90;;;;;;5059120;28;19922;-66
2022/09/24 07:34:37;;;;;;;;;;;13.40;99.90;;;;;;5072303;28;20011;-66
2022/09/24 07:37:02;;;;;;;;;;;13.50;99.90;;;;;;5069134;28;19916;-66
2022/09/24 07:39:28;;;;;;;;;;;13.50;99.90;;;;;;5070358;28;20370;-67
2022/09/24 07:41:54;;;;;;;;;;;13.50;99.90;;;;;;5053952;28;19920;-66
2022/09/24 07:44:21;;;;;;;;;;;13.60;99.90;;;;;;5070445;28;19924;-67
2022/09/24 07:46:50;;;;;;;;;;;13.60;99.90;;;;;;5103023;28;19916;-66
2022/09/24 07:49:16;;;;;;;;;;;13.60;99.90;;;;;;5070709;28;20034;-66
2022/09/24 07:51:41;;;;;;;;;;;13.60;99.90;;;;;;5067413;28;20015;-66
2022/09/24 07:54:07;;;;;;;;;;;13.60;99.90;;;;;;5103108;28;19916;-66
2022/09/24 07:56:33;;;;;;;;;;;13.70;99.90;;;;;;5052353;28;19923;-66
2022/09/24 07:58:58;;;;;;;;;;;13.70;99.90;;;;;;5067569;28;19912;-67
2022/09/24 08:01:25;;;;;;;;;;;13.70;99.90;;;;;;5067077;28;19921;-66
2022/09/24 08:03:51;;;;;;;;;;;13.70;99.90;;;;;;5052537;28;19916;-66
2022/09/24 08:06:16;;;;;;;;;;;13.80;99.90;;;;;;5069559;28;20047;-66
2022/09/24 08:08:42;;;;;;;;;;;13.80;99.90;;;;;;5065465;28;19924;-66
2022/09/24 08:11:09;;;;;;;;;;;13.90;99.90;;;;;;5067648;28;19916;-65
2022/09/24 08:13:35;;;;;;;;;;;14.00;99.90;;;;;;5068571;28;19995;-66
2022/09/24 08:16:01;;;;;;;;;;;14.00;99.90;;;;;;5068871;28;19995;-66
2022/09/24 08:18:27;;;;;;;;;;;14.00;99.90;;;;;;5069208;28;19924;-67
2022/09/24 08:20:53;;;;;;;;;;;14.10;99.90;;;;;;5053206;28;19925;-65
2022/09/24 08:23:19;;;;;;;;;;;14.20;99.90;;;;;;5069486;28;20275;-66
2022/09/24 08:25:45;;;;;;;;;;;14.20;99.90;;;;;;5068411;28;20381;-67
2022/09/24 08:28:11;;;;;;;;;;;14.20;99.90;;;;;;5069811;28;20436;-66
2022/09/24 08:30:38;;;;;;;;;;;14.30;99.90;;;;;;5068777;28;19924;-71
2022/09/24 08:33:06;;;;;;;;;;;14.20;99.90;;;;;;5071349;28;19916;-65
2022/09/24 08:35:33;;;;;;;;;;;14.30;99.90;;;;;;5067888;28;19920;-65
2022/09/24 08:38:00;;;;;;;;;;;14.30;99.90;;;;;;5065166;28;19935;-67
2022/09/24 08:40:27;;;;;;;;;;;14.30;99.90;;;;;;5069412;28;19923;-65
2022/09/24 08:43:03;;;;;;;;;;;14.30;99.90;;;;;;5071415;28;19920;-65
2022/09/24 08:48:23;;;;;;;;;;;14.30;99.90;;;;;;5099158;28;19920;-66
2022/09/24 08:51:00;;;;;;;;;;;14.30;99.90;;;;;;5066706;28;19920;-66
2022/09/24 08:53:32;;;;;;;;;;;14.20;99.90;;;;;;5099695;28;19920;-65
2022/09/24 08:55:59;;;;;;;;;;;14.20;99.90;;;;;;5052734;28;20015;-66
2022/09/24 08:58:51;;;;;;;;;;;14.20;99.90;;;;;;5051382;28;20643;-65
2022/09/24 09:01:21;;;;;;;;;;;14.20;99.90;;;;;;5068853;28;19935;-66
2022/09/24 09:03:55;;;;;;;;;;;14.20;99.90;;;;;;5069486;28;19964;-66
2022/09/24 09:06:44;;;;;;;;;;;14.20;99.90;;;;;;5071300;28;19955;-66
2022/09/24 09:09:10;;;;;;;;;;;14.30;99.90;;;;;;5070064;28;20370;-65
2022/09/24 09:11:37;;;;;;;;;;;14.30;99.90;;;;;;5054265;28;20007;-66
2022/09/24 09:14:16;;;;;;;;;;;14.30;99.90;;;;;;5068243;28;20017;-66
2022/09/24 09:16:48;;;;;;;;;;;14.30;99.90;;;;;;5051757;28;19916;-66
2022/09/24 09:19:15;;;;;;;;;;;14.30;99.90;;;;;;5062226;28;19939;-65
2022/09/24 09:21:41;;;;;;;;;;;14.40;99.90;;;;;;5066863;28;19916;-66
2022/09/24 09:24:30;;;;;;;;;;;14.40;99.90;;;;;;5068405;28;19924;-65
2022/09/24 09:26:56;;;;;;;;;;;14.50;99.90;;;;;;5008681;28;20423;-66
2022/09/24 09:29:24;;;;;;;;;;;14.50;99.90;;;;;;5008199;28;20019;-66
2022/09/24 09:31:55;;;;;;;;;;;14.60;99.90;;;;;;5005633;28;20021;-66
2022/09/24 09:34:53;;;;;;;;;;;14.60;99.90;;;;;;5008175;28;19961;-66
2022/09/24 09:37:26;;;;;;;;;;;14.60;99.90;;;;;;4985387;28;20436;-66
2022/09/24 09:39:56;;;;;;;;;;;14.70;99.90;;;;;;4972602;28;19917;-69
2022/09/24 09:42:24;;;;;;;;;;;14.70;99.90;;;;;;4972774;28;19926;-65
2022/09/24 09:44:50;;;;;;;;;;;14.60;99.90;;;;;;4967033;28;19925;-64
2022/09/24 09:47:18;;;;;;;;;;;14.60;99.90;;;;;;4967113;28;19952;-66
2022/09/24 09:49:46;;;;;;;;;;;14.60;99.90;;;;;;4986458;28;19928;-65
2022/09/24 09:52:16;;;;;;;;;;;14.60;99.90;;;;;;4969758;28;19918;-65
2022/09/24 09:54:43;;;;;;;;;;;14.70;99.90;;;;;;4984861;28;20000;-66
2022/09/24 09:57:17;;;;;;;;;;;14.70;99.90;;;;;;4967446;28;20395;-65
2022/09/24 09:59:49;;;;;;;;;;;14.70;99.90;;;;;;4971433;28;19948;-65
2022/09/24 10:02:26;;;;;;;;;;;14.80;99.90;;;;;;4988247;28;19917;-65
2022/09/24 10:04:56;;;;;;;;;;;14.80;99.90;;;;;;5012112;28;19921;-65
2022/09/24 10:07:22;;;;;;;;;;;14.80;99.90;;;;;;5014647;28;19979;-65
2022/09/24 10:09:57;;;;;;;;;;;14.80;99.90;;;;;;5014489;28;19925;-65
2022/09/24 10:12:23;;;;;;;;;;;14.80;99.90;;;;;;5041824;28;19920;-65
2022/09/24 10:14:56;;;;;;;;;;;14.90;99.90;;;;;;5074076;28;19916;-66
2022/09/24 10:17:24;;;;;;;;;;;14.90;99.90;;;;;;5072583;28;19982;-65
2022/09/24 10:19:49;;;;;;;;;;;14.90;99.90;;;;;;5072597;28;19973;-66
2022/09/24 10:22:21;;;;;;;;;;;14.90;99.90;;;;;;5056077;28;20430;-66
2022/09/24 10:24:47;;;;;;;;;;;14.90;99.90;;;;;;5072546;28;19931;-66
2022/09/24 10:27:18;;;;;;;;;;;14.90;99.90;;;;;;5072501;28;19924;-65
2022/09/24 10:32:28;;;;;;;;;;;15.00;99.90;;;;;;5073071;28;20307;-66
2022/09/24 10:34:58;;;;;;;;;;;15.00;99.90;;;;;;5056293;28;19942;-66
2022/09/24 10:37:23;;;;;;;;;;;14.90;99.90;;;;;;5072238;28;19955;-65
2022/09/24 10:39:56;;;;;;;;;;;14.90;99.90;;;;;;5072585;28;19970;-65
2022/09/24 10:42:23;;;;;;;;;;;14.90;99.90;;;;;;5072219;28;19978;-66
2022/09/24 10:44:49;;;;;;;;;;;14.90;99.90;;;;;;5072617;28;19971;-66
2022/09/24 10:47:25;;;;;;;;;;;14.90;99.90;;;;;;5071911;28;19920;-65
2022/09/24 10:50:17;;;;;;;;;;;14.90;99.90;;;;;;5072179;28;20352;-65
2022/09/24 10:52:51;;;;;;;;;;;15.00;99.90;;;;;;5066144;28;19994;-65
2022/09/24 10:55:29;;;;;;;;;;;15.00;99.90;;;;;;5074032;28;20012;-65
2022/09/24 10:57:55;;;;;;;;;;;15.00;99.90;;;;;;5071844;28;19922;-65
2022/09/24 11:00:22;;;;;;;;;;;15.10;99.90;;;;;;5071902;28;20367;-65
2022/09/24 11:03:03;;;;;;;;;;;15.10;99.90;;;;;;5072415;28;20355;-65
2022/09/24 11:05:32;;;;;;;;;;;15.10;99.90;;;;;;5072071;28;19916;-65
2022/09/24 11:08:02;;;;;;;;;;;15.10;99.90;;;;;;5071850;28;19920;-65
2022/09/24 11:10:28;;;;;;;;;;;15.10;99.90;;;;;;5071864;28;19920;-66
2022/09/24 11:13:01;;;;;;;;;;;15.00;99.90;;;;;;5071700;28;19916;-65
2022/09/24 11:15:33;;;;;;;;;;;15.10;99.90;;;;;;5071669;28;19923;-66
2022/09/24 11:18:08;;;;;;;;;;;15.10;99.90;;;;;;5075035;28;19925;-66
2022/09/24 11:20:37;;;;;;;;;;;15.10;99.90;;;;;;5070074;28;19920;-65
2022/09/24 11:23:13;;;;;;;;;;;15.10;99.90;;;;;;5071573;28;19916;-65
2022/09/24 11:25:44;;;;;;;;;;;15.10;99.90;;;;;;5071510;28;20339;-65
2022/09/24 11:28:18;;;;;;;;;;;15.10;99.90;;;;;;5074668;28;19920;-65
2022/09/24 11:30:48;;;;;;;;;;;15.00;99.90;;;;;;5071447;28;19921;-65
2022/09/24 11:33:29;;;;;;;;;;;15.00;99.90;;;;;;5071470;28;19952;-65
2022/09/24 11:36:14;;;;;;;;;;;15.00;99.90;;;;;;5068573;28;19927;-66
2022/09/24 11:39:00;;;;;;;;;;;14.90;99.90;;;;;;5070124;28;19931;-66
2022/09/24 11:41:34;;;;;;;;;;;14.90;99.90;;;;;;5069724;28;20007;-66
2022/09/24 11:44:03;;;;;;;;;;;14.90;99.90;;;;;;5054158;28;19927;-65
2022/09/24 11:46:43;;;;;;;;;;;14.90;99.90;;;;;;5070486;28;19927;-65
2022/09/24 11:49:18;;;;;;;;;;;14.90;99.90;;;;;;5052479;28;19920;-65
2022/09/24 11:51:57;;;;;;;;;;;14.90;99.90;;;;;;5068089;28;19943;-66
2022/09/24 11:54:29;;;;;;;;;;;14.80;99.90;;;;;;5053906;28;20020;-66
2022/09/24 11:56:58;;;;;;;;;;;14.90;99.90;;;;;;5070438;28;19916;-65
2022/09/24 11:59:42;;;;;;;;;;;14.90;99.90;;;;;;5051108;28;19946;-66
2022/09/24 12:02:18;;;;;;;;;;;14.90;99.90;;;;;;5069111;28;19921;-65
2022/09/24 12:04:55;;;;;;;;;;;14.90;99.90;;;;;;5070738;28;19920;-65
2022/09/24 12:07:44;;;;;;;;;;;14.90;99.90;;;;;;5070738;28;20424;-64
2022/09/24 12:10:42;;;;;;;;;;;14.90;99.90;;;;;;5013703;28;19916;-65
2022/09/24 12:13:17;;;;;;;;;;;15.00;99.90;;;;;;4971227;28;19992;-66
2022/09/24 12:16:04;;;;;;;;;;;15.00;99.90;;;;;;4970624;28;19993;-65
2022/09/24 12:18:34;;;;;;;;;;;15.00;99.90;;;;;;4970311;28;20334;-65
2022/09/24 12:21:11;;;;;;;;;;;15.00;99.90;;;;;;4967787;28;19918;-66
2022/09/24 12:23:39;;;;;;;;;;;14.90;99.90;;;;;;4967649;28;19918;-66
2022/09/24 12:26:06;;;;;;;;;;;14.90;99.90;;;;;;4970594;28;19918;-65
2022/09/24 12:34:52;;;;;;;;;;;15.00;99.90;;;;;;4933618;29;20293;-65
2022/09/24 12:37:20;;;;;;;;;;;15.10;99.90;;;;;;4932045;29;20060;-65
2022/09/24 12:39:51;;;;;;;;;;;15.10;99.90;;;;;;4920226;29;19934;-66
2022/09/24 12:42:20;;;;;;;;;;;15.10;99.90;;;;;;4916132;29;20393;-65
2022/09/24 12:44:49;;;;;;;;;;;15.20;99.90;;;;;;4930162;29;19929;-65
2022/09/24 12:47:19;;;;;;;;;;;15.20;99.90;;;;;;4960396;28;20394;-66
2022/09/24 12:49:50;;;;;;;;;;;15.30;99.90;;;;;;5009160;28;20012;-66
2022/09/24 12:52:17;;;;;;;;;;;15.30;99.90;;;;;;5028208;28;19921;-65
2022/09/24 12:54:43;;;;;;;;;;;15.30;99.90;;;;;;5012793;28;19970;-65
2022/09/24 12:57:19;;;;;;;;;;;15.30;99.90;;;;;;5012620;28;19920;-64
2022/09/24 12:59:52;;;;;;;;;;;15.30;99.90;;;;;;5012564;28;19917;-65
2022/09/24 13:02:24;;;;;;;;;;;15.30;99.90;;;;;;5012174;28;19965;-65
2022/09/24 13:05:09;;;;;;;;;;;15.20;99.90;;;;;;5011735;28;20063;-66
2022/09/24 13:07:36;;;;;;;;;;;15.20;99.90;;;;;;4961065;28;19922;-65
2022/09/24 13:10:11;;;;;;;;;;;15.10;99.90;;;;;;5023970;28;20338;-65
2022/09/24 13:12:36;;;;;;;;;;;15.00;99.90;;;;;;4992847;28;19925;-65
2022/09/24 13:15:07;;;;;;;;;;;15.00;99.90;;;;;;4992574;28;20000;-65
2022/09/24 13:17:33;;;;;;;;;;;15.10;99.90;;;;;;4976464;28;19917;-65
2022/09/24 13:20:02;;;;;;;;;;;15.10;99.90;;;;;;4995556;28;19918;-65
2022/09/24 13:22:29;;;;;;;;;;;15.10;99.90;;;;;;4992492;28;19925;-65
2022/09/24 13:25:16;;;;;;;;;;;15.10;99.90;;;;;;4990381;28;19939;-65
2022/09/24 13:27:42;;;;;;;;;;;15.20;99.90;;;;;;4988473;28;19921;-65
2022/09/24 13:30:08;;;;;;;;;;;15.20;99.90;;;;;;4991962;28;19956;-65
2022/09/24 13:32:41;;;;;;;;;;;15.10;99.90;;;;;;4992173;28;19972;-65
2022/09/24 13:35:13;;;;;;;;;;;15.10;99.90;;;;;;5025358;28;19925;-65
2022/09/24 13:37:40;;;;;;;;;;;15.10;99.90;;;;;;5024297;28;19917;-65
2022/09/24 13:40:14;;;;;;;;;;;15.10;99.90;;;;;;4994954;28;19925;-65
2022/09/24 13:42:45;;;;;;;;;;;15.20;99.90;;;;;;4996051;28;20027;-65
2022/09/24 13:45:14;;;;;;;;;;;15.20;99.90;;;;;;5049094;28;19943;-65
2022/09/24 13:47:42;;;;;;;;;;;15.10;99.90;;;;;;5071676;28;19920;-66
2022/09/24 13:50:14;;;;;;;;;;;15.10;99.90;;;;;;5072132;28;19924;-66
2022/09/24 13:52:48;;;;;;;;;;;15.00;99.90;;;;;;5071733;28;19916;-65
2022/09/24 13:55:17;;;;;;;;;;;15.00;99.90;;;;;;5071718;28;20520;-65
2022/09/24 13:57:43;;;;;;;;;;;15.00;99.90;;;;;;5072845;28;20021;-65
2022/09/24 14:00:18;;;;;;;;;;;15.00;99.90;;;;;;5078665;28;19916;-66
2022/09/24 14:02:52;;;;;;;;;;;15.00;99.90;;;;;;5056413;28;19916;-65
2022/09/24 14:05:18;;;;;;;;;;;15.00;99.90;;;;;;5073119;28;19922;-65
2022/09/24 14:07:58;;;;;;;;;;;15.00;99.90;;;;;;5072929;28;20058;-66
2022/09/24 14:10:24;;;;;;;;;;;15.00;99.90;;;;;;5075020;28;20003;-65
2022/09/24 14:12:59;;;;;;;;;;;14.90;99.90;;;;;;5074407;28;20098;-65
2022/09/24 14:15:25;;;;;;;;;;;14.80;99.90;;;;;;5070930;28;20252;-65
2022/09/24 14:17:55;;;;;;;;;;;14.80;99.90;;;;;;5072954;28;19917;-65
2022/09/24 14:20:21;;;;;;;;;;;14.80;99.90;;;;;;5073183;28;20421;-66
2022/09/24 14:22:46;;;;;;;;;;;14.80;99.90;;;;;;5073303;28;19968;-66
2022/09/24 14:25:16;;;;;;;;;;;14.90;99.90;;;;;;5074210;28;19997;-66
2022/09/24 14:27:47;;;;;;;;;;;14.90;99.90;;;;;;5072180;28;20057;-65
2022/09/24 14:30:22;;;;;;;;;;;14.80;99.90;;;;;;5072701;28;19916;-65
2022/09/24 14:32:54;;;;;;;;;;;14.90;99.90;;;;;;5070876;28;19920;-65
2022/09/24 14:35:33;;;;;;;;;;;14.80;99.90;;;;;;5074869;28;19917;-65
2022/09/24 14:38:03;;;;;;;;;;;14.80;99.90;;;;;;5056067;28;19916;-65
2022/09/24 14:40:29;;;;;;;;;;;14.70;99.90;;;;;;5072877;28;19920;-65